createdAt,value
2023-03-06T00:01:20.118Z,100574.09
2023-03-06T00:06:16.965Z,100568.28
2023-03-06T00:11:14.905Z,100548.19
2023-03-06T00:16:13.002Z,100532.38
2023-03-06T00:21:09.970Z,100576.09
2023-03-06T00:26:08.000Z,100548.00
2023-03-06T00:31:08.366Z,100489.44
2023-03-06T00:36:07.290Z,100490.47
2023-03-06T00:41:08.934Z,100563.03
2023-03-06T00:46:06.031Z,100452.47
2023-03-06T00:51:03.161Z,100527.56
2023-03-06T00:56:00.711Z,100529.91
2023-03-06T01:00:57.671Z,100539.16
2023-03-06T01:05:54.633Z,100517.09
2023-03-06T01:10:51.590Z,100495.06
2023-03-06T01:15:49.151Z,100510.69
2023-03-06T01:20:46.074Z,100469.13
2023-03-06T01:25:42.897Z,100473.25
2023-03-06T01:30:40.050Z,100538.88
2023-03-06T01:35:38.849Z,100441.03
2023-03-06T01:40:37.045Z,100529.69
2023-03-06T01:46:12.087Z,100539.13
2023-03-06T01:51:10.598Z,100520.53
2023-03-06T01:56:09.041Z,100540.31
2023-03-06T02:01:05.971Z,100505.28
2023-03-06T02:06:02.762Z,100457.69
2023-03-06T02:11:11.144Z,100506.00
2023-03-06T02:16:09.349Z,100488.09
2023-03-06T02:21:08.893Z,100528.19
2023-03-06T02:26:08.456Z,100422.09
2023-03-06T02:31:06.634Z,100483.44
2023-03-06T02:36:10.553Z,100495.44
2023-03-06T02:41:09.353Z,100523.63
2023-03-06T02:46:07.087Z,100550.94
2023-03-06T02:51:04.047Z,100546.63
2023-03-06T02:56:02.610Z,100526.25
2023-03-06T03:01:00.282Z,100552.25
2023-03-06T03:05:58.384Z,100546.38
2023-03-06T03:11:00.632Z,100508.47
2023-03-06T03:16:05.640Z,100517.03
2023-03-06T03:21:07.836Z,100466.13
2023-03-06T03:26:08.689Z,100539.69
2023-03-06T03:31:10.062Z,100521.13
2023-03-06T03:36:08.068Z,100515.38
2023-03-06T03:41:08.930Z,100480.41
2023-03-06T03:46:07.247Z,100562.16
2023-03-06T03:51:05.970Z,100560.47
2023-03-06T03:56:06.101Z,100567.38
2023-03-06T04:01:08.460Z,100555.47
2023-03-06T04:06:07.210Z,100571.75
2023-03-06T04:11:04.686Z,100561.53
2023-03-06T04:16:02.517Z,100502.75
2023-03-06T04:21:02.696Z,100565.63
2023-03-06T04:26:00.917Z,100541.84
2023-03-06T04:30:58.469Z,100538.72
2023-03-06T04:35:56.497Z,100579.72
2023-03-06T04:40:58.354Z,100521.03
2023-03-06T04:45:55.383Z,100520.44
2023-03-06T04:50:52.184Z,100586.69
2023-03-06T04:55:49.037Z,100512.59
2023-03-06T05:00:46.540Z,100571.47
2023-03-06T05:05:43.592Z,100587.66
2023-03-06T05:10:40.370Z,100536.50
2023-03-06T05:15:39.389Z,100614.41
2023-03-06T05:20:36.903Z,100598.72
2023-03-06T05:25:34.040Z,100619.53
2023-03-06T05:30:32.233Z,100606.84
2023-03-06T05:35:29.312Z,100640.25
2023-03-06T05:40:28.098Z,100648.69
2023-03-06T05:45:25.072Z,100646.88
2023-03-06T05:50:21.956Z,100646.19
2023-03-06T05:55:23.545Z,100653.97
2023-03-06T06:00:22.509Z,100643.03
2023-03-06T06:05:20.411Z,100687.31
2023-03-06T06:10:17.603Z,100676.44
2023-03-06T06:15:14.808Z,100701.13
2023-03-06T06:20:13.670Z,100635.97
2023-03-06T06:25:10.515Z,100660.91
2023-03-06T06:30:11.844Z,100687.50
2023-03-06T06:35:14.160Z,100761.09
2023-03-06T06:40:14.659Z,100742.28
2023-03-06T06:45:12.220Z,100694.56
2023-03-06T06:50:12.238Z,100735.59
2023-03-06T06:55:10.521Z,100669.91
2023-03-06T07:00:10.396Z,100808.56
2023-03-06T07:05:08.079Z,100786.91
2023-03-06T07:10:06.821Z,100815.19
2023-03-06T07:15:04.647Z,100823.22
2023-03-06T07:20:03.117Z,100795.31
2023-03-06T07:25:00.112Z,100768.34
2023-03-06T07:29:56.992Z,100749.53
2023-03-06T07:35:02.727Z,100821.13
2023-03-06T07:40:12.120Z,100808.34
2023-03-06T07:45:09.882Z,100781.59
2023-03-06T07:50:07.511Z,100811.69
2023-03-06T07:55:05.120Z,100829.81
2023-03-06T08:00:03.350Z,100793.50
2023-03-06T08:05:12.607Z,100844.50
2023-03-06T08:10:13.410Z,100845.47
2023-03-06T08:15:12.825Z,100820.38
2023-03-06T08:20:11.656Z,100855.72
2023-03-06T08:25:12.680Z,100800.88
2023-03-06T08:30:12.024Z,100855.06
2023-03-06T08:35:09.264Z,100792.63
2023-03-06T08:40:09.164Z,100851.03
2023-03-06T08:45:07.531Z,100786.09
2023-03-06T08:50:05.719Z,100810.03
2023-03-06T08:55:04.943Z,100800.53
2023-03-06T09:00:06.250Z,100791.16
2023-03-06T09:05:05.314Z,100846.97
2023-03-06T09:10:02.552Z,100846.28
2023-03-06T09:14:59.634Z,100815.38
2023-03-06T09:24:42.621Z,100829.44
2023-03-06T09:29:43.587Z,100817.38
2023-03-06T09:34:41.783Z,100775.19
2023-03-06T09:39:40.570Z,100807.69
2023-03-06T09:44:40.661Z,100827.53
2023-03-06T09:49:47.709Z,100866.69
2023-03-06T09:54:50.865Z,100864.19
2023-03-06T09:59:54.184Z,100775.28
2023-03-06T10:04:56.026Z,100806.28
2023-03-06T10:10:07.945Z,100844.53
2023-03-06T10:15:17.642Z,100836.88
2023-03-06T10:20:21.785Z,100835.00
2023-03-06T10:25:25.454Z,100818.28
2023-03-06T10:30:37.475Z,100811.25
2023-03-06T10:35:45.689Z,100802.16
2023-03-06T10:40:55.397Z,100801.19
2023-03-06T10:45:53.701Z,100801.00
2023-03-06T10:50:51.498Z,100754.22
2023-03-06T10:55:56.407Z,100724.28
2023-03-06T11:01:07.131Z,100733.31
2023-03-06T11:06:13.474Z,100778.56
2023-03-06T11:11:14.490Z,100770.69
2023-03-06T11:16:25.122Z,100773.28
2023-03-06T11:21:31.374Z,100691.16
2023-03-06T11:26:43.296Z,100768.63
2023-03-06T11:31:47.692Z,100740.59
2023-03-06T11:36:58.821Z,100716.44
2023-03-06T11:42:08.089Z,100741.38
2023-03-06T11:47:17.362Z,100737.41
2023-03-06T11:52:22.199Z,100736.56
2023-03-06T11:57:32.970Z,100734.53
2023-03-06T12:02:42.591Z,100686.34
2023-03-06T12:07:53.523Z,100640.41
2023-03-06T12:13:14.914Z,100714.88
2023-03-06T12:18:28.153Z,100658.50
2023-03-06T12:23:52.443Z,100712.22
2023-03-06T12:29:06.285Z,100690.88
2023-03-06T12:34:20.526Z,100639.00
2023-03-06T12:39:25.474Z,100687.06
2023-03-06T12:44:55.559Z,100676.69
2023-03-06T12:49:57.081Z,100614.88
2023-03-06T12:54:54.399Z,100686.84
2023-03-06T12:59:52.473Z,100686.34
2023-03-06T13:05:04.871Z,100676.06
2023-03-06T13:10:16.694Z,100679.63
2023-03-06T13:15:38.459Z,100636.44
2023-03-06T13:20:42.931Z,100628.88
2023-03-06T13:25:48.512Z,100653.16
2023-03-06T13:30:48.267Z,100626.34
2023-03-06T13:35:52.794Z,100666.88
2023-03-06T13:40:49.688Z,100661.53
2023-03-06T13:45:48.468Z,100660.72
2023-03-06T13:50:46.828Z,100661.53
2023-03-06T13:55:51.844Z,100563.53
2023-03-06T14:01:17.003Z,100643.38
2023-03-06T14:06:41.751Z,100644.47
2023-03-06T14:11:45.700Z,100618.72
2023-03-06T14:16:50.843Z,100630.34
2023-03-06T14:21:54.374Z,100598.25
2023-03-06T14:26:51.836Z,100627.63
2023-03-06T14:31:54.136Z,100632.59
2023-03-06T14:36:52.499Z,100625.94
2023-03-06T14:41:49.452Z,100596.06
2023-03-06T14:46:48.580Z,100634.88
2023-03-06T14:51:48.397Z,100616.88
2023-03-06T14:56:48.172Z,100640.22
2023-03-06T15:01:48.453Z,100611.63
2023-03-06T15:06:46.396Z,100618.22
2023-03-06T15:11:58.490Z,100621.34
2023-03-06T15:17:16.048Z,100577.75
2023-03-06T15:22:26.916Z,100550.31
2023-03-06T15:27:34.885Z,100601.41
2023-03-06T15:32:35.065Z,100563.78
2023-03-06T15:37:44.378Z,100537.06
2023-03-06T15:42:42.746Z,100503.19
2023-03-06T15:47:45.123Z,100546.31
2023-03-06T15:52:43.000Z,100539.53
2023-03-06T15:57:43.689Z,100496.44
2023-03-06T16:02:43.431Z,100624.00
2023-03-06T16:07:40.443Z,100505.06
2023-03-06T16:12:38.215Z,100486.09
2023-03-06T16:17:35.035Z,100591.47
2023-03-06T16:22:31.937Z,100528.09
2023-03-06T16:27:29.382Z,100529.66
2023-03-06T16:32:28.851Z,100565.47
2023-03-06T16:37:25.787Z,100622.84
2023-03-06T16:42:25.600Z,100641.44
2023-03-06T16:47:22.728Z,100571.53
2023-03-06T16:52:34.691Z,100645.38
2023-03-06T16:57:36.166Z,100635.09
2023-03-06T17:02:40.335Z,100649.94
2023-03-06T17:07:40.646Z,100623.16
2023-03-06T17:12:37.839Z,100632.16
2023-03-06T17:17:43.501Z,100616.59
2023-03-06T17:22:45.410Z,100635.84
2023-03-06T17:27:44.220Z,100613.09
2023-03-06T17:32:41.432Z,100646.00
2023-03-06T17:37:38.686Z,100636.53
2023-03-06T17:42:36.928Z,100627.75
2023-03-06T17:47:34.227Z,100668.91
2023-03-06T17:52:31.315Z,100551.78
2023-03-06T17:57:28.528Z,100611.56
2023-03-06T18:02:28.560Z,100659.41
2023-03-06T18:07:28.188Z,100612.31
2023-03-06T18:12:25.386Z,100634.06
2023-03-06T18:17:22.468Z,100683.75
2023-03-06T18:22:20.366Z,100649.13
2023-03-06T18:27:17.464Z,100620.69
2023-03-06T18:32:14.402Z,100682.34
2023-03-06T18:37:18.783Z,100662.78
2023-03-06T18:42:19.428Z,100637.78
2023-03-06T18:47:16.604Z,100650.13
2023-03-06T18:52:17.035Z,100685.06
2023-03-06T18:57:13.942Z,100626.66
2023-03-06T19:02:17.475Z,100685.34
2023-03-06T19:07:14.535Z,100616.88
2023-03-06T19:12:11.592Z,100677.97
2023-03-06T19:17:08.654Z,100682.13
2023-03-06T19:22:07.529Z,100668.25
2023-03-06T19:27:05.604Z,100615.66
2023-03-06T19:32:02.809Z,100671.13
2023-03-06T19:36:59.784Z,100608.44
2023-03-06T19:41:57.602Z,100609.38
2023-03-06T19:46:54.765Z,100653.72
2023-03-06T19:51:51.796Z,100653.94
2023-03-06T19:56:48.807Z,100672.47
2023-03-06T20:01:46.614Z,100648.09
2023-03-06T20:06:44.889Z,100618.69
2023-03-06T20:11:42.186Z,100617.03
2023-03-06T20:16:39.558Z,100568.25
2023-03-06T20:21:38.121Z,100596.38
2023-03-06T20:26:36.955Z,100574.91
2023-03-06T20:31:33.893Z,100582.63
2023-03-06T20:36:35.799Z,100626.75
2023-03-06T20:41:33.345Z,100535.34
2023-03-06T20:46:33.421Z,100631.72
2023-03-06T20:51:31.768Z,100583.28
2023-03-06T20:56:30.662Z,100561.53
2023-03-06T21:01:31.042Z,100603.88
2023-03-06T21:06:28.693Z,100541.66
2023-03-06T21:11:29.948Z,100562.06
2023-03-06T21:16:29.630Z,100486.78
2023-03-06T21:21:28.819Z,100600.25
2023-03-06T21:26:28.548Z,100582.66
2023-03-06T21:31:26.438Z,100573.91
2023-03-06T21:36:24.496Z,100523.59
2023-03-06T21:41:24.137Z,100573.31
2023-03-06T21:46:21.476Z,100563.97
2023-03-06T21:51:19.941Z,100567.03
2023-03-06T21:56:19.892Z,100569.41
2023-03-06T22:01:19.106Z,100581.75
2023-03-06T22:06:19.707Z,100580.97
2023-03-06T22:11:18.878Z,100568.91
2023-03-06T22:16:16.501Z,100569.47
2023-03-06T22:21:15.280Z,100502.63
2023-03-06T22:26:13.766Z,100567.22
2023-03-06T22:31:13.184Z,100526.38
2023-03-06T22:36:12.775Z,100470.75
2023-03-06T22:41:11.008Z,100574.66
2023-03-06T22:46:09.404Z,100501.66
2023-03-06T22:51:09.843Z,100572.78
2023-03-06T22:56:09.871Z,100535.38
2023-03-06T23:01:07.990Z,100522.63
2023-03-06T23:06:07.451Z,100563.94
2023-03-06T23:11:09.323Z,100533.22
2023-03-06T23:16:25.469Z,100554.41
2023-03-06T23:21:41.457Z,100566.34
2023-03-06T23:26:56.785Z,100537.94
2023-03-06T23:31:53.604Z,100529.22
2023-03-06T23:36:51.129Z,100536.69
2023-03-06T23:41:48.804Z,100504.78
2023-03-06T23:46:45.600Z,100529.81
2023-03-06T23:51:42.606Z,100477.31
2023-03-06T23:56:40.206Z,100469.38
